Sunday, July 22, 2018, 4:02 PM GMT
Back to Local

CXSH, Shawinigan CS , Que.

Location: , , Canada Lat: 46.583
Local Time: 4:02 PM GMT (16:02 GMT) Lon: -72.583
Time Zone: GMT Elev: 360 ft

Show me the last for .
Show Coded

Time T Td Feel RH Dir Speed Gust Alt SLP Vis Weather Sky Remarks
2018-07-22 15:00 73 53 76 50 100° 3 - - 30.12 0 None
2018-07-22 14:00 73 57 77 56 80° 8 - - 30.11 0 None
2018-07-22 13:00 71 59 76 64 70° 6 - - 30.11 0 None
2018-07-22 12:00 66 56 - 70 60° 5 - - 30.11 0 None
2018-07-22 11:00 64 58 - 78 60° 5 - - 30.10 0 None
2018-07-22 10:00 63 54 - 73 40° 5 - - 30.10 0 None
2018-07-22 09:00 62 54 - 74 60° 5 - - 30.10 0 None
2018-07-22 08:00 63 56 - 77 60° 3 - - 30.10 0 None
2018-07-22 07:00 62 58 - 86 50° 2 - - 30.09 0 None
2018-07-22 06:00 65 59 - 79 60° 3 - - 30.09 0 None
2018-07-22 05:00 67 60 - 78 50° 2 - - 30.08 0 None
2018-07-22 04:00 67 62 - 83 20° 2 - - 30.07 0 None
2018-07-22 03:00 70 62 - 76 330° 2 - - 30.07 0 None
2018-07-22 02:00 73 63 77 70 310° 1 - - 30.06 0 None
2018-07-22 01:00 76 64 78 66 350° 1 - - 30.05 0 None
2018-07-22 00:00 81 60 82 49 90° 2 - - 30.04 0 None
2018-07-21 23:00 84 61 85 46 110° 2 - - 30.05 0 None
2018-07-21 22:00 84 58 85 41 130° 6 - - 30.05 0 None
2018-07-21 21:00 85 57 - 39 100° 5 - - 30.06 0 None
2018-07-21 20:00 85 56 - 36 150° 7 - - 30.06 0 None
2018-07-21 19:00 86 57 - 37 150° 6 - - 30.08 0 None
2018-07-21 18:00 84 56 - 37 110° 7 - - 30.09 0 None
2018-07-21 17:00 84 59 84 43 140° 6 - - 30.10 0 None

Support USWX by starting your Amazon purchase here.